Terminal Aerodrome Forecast
Issued by NWS Charleston, WV

Current Version | Previous Version | Text Only | Print | Product List | Glossary Off
Versions: 1 2 3 4 5 6 7 8 9 10 11 12 13 14 15 16 17 18 19

000
FTUS41 KRLX 251700 RRA
TAFHTS
TAF
KHTS 251745Z 2518/2618 25009G15KT P6SM OVC025
     FM252000 24009G15KT P6SM BKN035
     FM252200 24008G12KT P6SM SCT035
     FM260000 22007KT P6SM SCT045
     FM260200 18002KT P6SM SKC
     FM261400 23005KT P6SM SKC=

USA.gov is the U.S. government's official web portal to all federal, state and local government web resources and services.